sensor_id;sensor_type;location;lat;lon;timestamp;pressure;altitude;pressure_sealevel;temperature;humidity
28027;BME280;15344;52.342;-1.290;2023-02-19T00:00:49;100745.46;;;11.69;94.19
28027;BME280;15344;52.342;-1.290;2023-02-19T00:03:15;100746.17;;;12.41;90.79
28027;BME280;15344;52.342;-1.290;2023-02-19T00:05:40;100744.68;;;12.27;90.55
28027;BME280;15344;52.342;-1.290;2023-02-19T00:08:06;100749.69;;;11.80;92.06
28027;BME280;15344;52.342;-1.290;2023-02-19T00:10:31;100750.16;;;11.40;95.67
28027;BME280;15344;52.342;-1.290;2023-02-19T00:12:56;100750.57;;;11.02;96.46
28027;BME280;15344;52.342;-1.290;2023-02-19T00:15:21;100748.47;;;11.15;94.73
28027;BME280;15344;52.342;-1.290;2023-02-19T00:17:46;100757.00;;;11.63;92.71
28027;BME280;15344;52.342;-1.290;2023-02-19T00:20:12;100765.27;;;11.00;94.86
28027;BME280;15344;52.342;-1.290;2023-02-19T00:22:37;100767.00;;;11.38;94.98
28027;BME280;15344;52.342;-1.290;2023-02-19T00:25:02;100768.64;;;10.63;97.24
28027;BME280;15344;52.342;-1.290;2023-02-19T00:27:27;100770.71;;;10.38;98.71
28027;BME280;15344;52.342;-1.290;2023-02-19T00:29:53;100780.87;;;10.82;96.85
28027;BME280;15344;52.342;-1.290;2023-02-19T00:32:18;100786.45;;;10.32;98.59
28027;BME280;15344;52.342;-1.290;2023-02-19T00:34:44;100788.14;;;10.76;97.74
28027;BME280;15344;52.342;-1.290;2023-02-19T00:37:09;100783.76;;;11.02;95.33
28027;BME280;15344;52.342;-1.290;2023-02-19T00:39:34;100784.05;;;11.03;95.26
28027;BME280;15344;52.342;-1.290;2023-02-19T00:42:00;100778.28;;;11.01;94.28
28027;BME280;15344;52.342;-1.290;2023-02-19T00:44:25;100780.08;;;11.53;90.99
28027;BME280;15344;52.342;-1.290;2023-02-19T00:46:51;100778.23;;;11.11;93.06
28027;BME280;15344;52.342;-1.290;2023-02-19T00:49:18;100782.20;;;10.82;92.07
28027;BME280;15344;52.342;-1.290;2023-02-19T00:51:41;100784.75;;;11.74;88.70
28027;BME280;15344;52.342;-1.290;2023-02-19T00:54:07;100790.89;;;11.87;88.50
28027;BME280;15344;52.342;-1.290;2023-02-19T00:56:33;100802.94;;;12.11;87.00
28027;BME280;15344;52.342;-1.290;2023-02-19T00:58:57;100812.09;;;12.71;84.40
28027;BME280;15344;52.342;-1.290;2023-02-19T01:01:28;100819.68;;;12.72;83.72
28027;BME280;15344;52.342;-1.290;2023-02-19T01:03:48;100816.43;;;13.15;82.32
28027;BME280;15344;52.342;-1.290;2023-02-19T01:06:16;100822.94;;;12.97;83.22
28027;BME280;15344;52.342;-1.290;2023-02-19T01:08:39;100819.66;;;11.91;85.93
28027;BME280;15344;52.342;-1.290;2023-02-19T01:11:06;100825.42;;;12.12;86.40
28027;BME280;15344;52.342;-1.290;2023-02-19T01:13:30;100829.47;;;12.47;84.75
28027;BME280;15344;52.342;-1.290;2023-02-19T01:16:03;100822.92;;;12.15;87.17
28027;BME280;15344;52.342;-1.290;2023-02-19T01:18:20;100824.25;;;11.66;88.23
28027;BME280;15344;52.342;-1.290;2023-02-19T01:20:46;100832.70;;;12.45;85.00
28027;BME280;15344;52.342;-1.290;2023-02-19T01:23:13;100837.55;;;12.22;85.97
28027;BME280;15344;52.342;-1.290;2023-02-19T01:25:37;100833.31;;;12.30;85.25
28027;BME280;15344;52.342;-1.290;2023-02-19T01:28:02;100834.72;;;12.51;84.83
28027;BME280;15344;52.342;-1.290;2023-02-19T01:30:27;100825.13;;;11.63;87.06
28027;BME280;15344;52.342;-1.290;2023-02-19T01:32:52;100817.15;;;11.31;89.47
28027;BME280;15344;52.342;-1.290;2023-02-19T01:35:18;100812.70;;;12.16;86.83
28027;BME280;15344;52.342;-1.290;2023-02-19T01:37:43;100808.15;;;12.03;86.48
28027;BME280;15344;52.342;-1.290;2023-02-19T01:40:09;100817.34;;;12.32;85.35
28027;BME280;15344;52.342;-1.290;2023-02-19T01:42:34;100820.08;;;12.32;86.15
28027;BME280;15344;52.342;-1.290;2023-02-19T01:47:25;100829.54;;;12.22;85.74
28027;BME280;15344;52.342;-1.290;2023-02-19T01:49:53;100834.08;;;12.38;85.49
28027;BME280;15344;52.342;-1.290;2023-02-19T01:52:18;100833.59;;;12.24;87.24
28027;BME280;15344;52.342;-1.290;2023-02-19T01:54:42;100835.70;;;11.54;88.42
28027;BME280;15344;52.342;-1.290;2023-02-19T01:57:09;100829.25;;;12.19;87.06
28027;BME280;15344;52.342;-1.290;2023-02-19T01:59:33;100828.24;;;11.71;87.25
28027;BME280;15344;52.342;-1.290;2023-02-19T02:01:58;100833.81;;;11.82;89.15
28027;BME280;15344;52.342;-1.290;2023-02-19T02:04:22;100839.30;;;11.07;90.57
28027;BME280;15344;52.342;-1.290;2023-02-19T02:06:50;100841.59;;;10.48;93.77
28027;BME280;15344;52.342;-1.290;2023-02-19T02:09:13;100840.44;;;10.35;95.52
28027;BME280;15344;52.342;-1.290;2023-02-19T02:11:41;100845.75;;;10.87;93.90
28027;BME280;15344;52.342;-1.290;2023-02-19T02:14:04;100851.96;;;10.69;94.69
28027;BME280;15344;52.342;-1.290;2023-02-19T02:16:34;100858.71;;;11.16;95.03
28027;BME280;15344;52.342;-1.290;2023-02-19T02:19:03;100861.10;;;10.62;98.01
28027;BME280;15344;52.342;-1.290;2023-02-19T02:21:33;100857.85;;;10.98;96.36
28027;BME280;15344;52.342;-1.290;2023-02-19T02:23:56;100868.88;;;11.36;94.76
28027;BME280;15344;52.342;-1.290;2023-02-19T02:26:21;100872.22;;;11.14;93.69
28027;BME280;15344;52.342;-1.290;2023-02-19T02:31:04;100884.55;;;11.47;93.26
28027;BME280;15344;52.342;-1.290;2023-02-19T02:33:31;100888.80;;;11.50;91.91
28027;BME280;15344;52.342;-1.290;2023-02-19T02:35:56;100894.11;;;10.91;93.04
28027;BME280;15344;52.342;-1.290;2023-02-19T02:38:19;100884.50;;;11.77;90.95
28027;BME280;15344;52.342;-1.290;2023-02-19T02:40:44;100880.05;;;12.24;89.31
28027;BME280;15344;52.342;-1.290;2023-02-19T02:43:09;100881.76;;;11.71;90.43
28027;BME280;15344;52.342;-1.290;2023-02-19T02:45:34;100880.59;;;11.32;91.82
28027;BME280;15344;52.342;-1.290;2023-02-19T02:48:01;100881.31;;;11.67;91.13
28027;BME280;15344;52.342;-1.290;2023-02-19T02:50:28;100885.86;;;11.74;90.98
28027;BME280;15344;52.342;-1.290;2023-02-19T02:52:57;100890.56;;;11.75;91.28
28027;BME280;15344;52.342;-1.290;2023-02-19T02:55:15;100893.81;;;11.97;89.72
28027;BME280;15344;52.342;-1.290;2023-02-19T02:57:41;100896.54;;;11.85;89.50
28027;BME280;15344;52.342;-1.290;2023-02-19T03:00:07;100896.98;;;12.47;87.41
28027;BME280;15344;52.342;-1.290;2023-02-19T03:02:31;100907.47;;;11.54;91.54
28027;BME280;15344;52.342;-1.290;2023-02-19T03:05:01;100919.34;;;11.85;88.47
28027;BME280;15344;52.342;-1.290;2023-02-19T03:07:22;100923.04;;;11.51;90.46
28027;BME280;15344;52.342;-1.290;2023-02-19T03:09:47;100919.28;;;11.98;89.44
28027;BME280;15344;52.342;-1.290;2023-02-19T03:12:14;100923.63;;;11.25;91.36
28027;BME280;15344;52.342;-1.290;2023-02-19T03:14:42;100926.16;;;11.13;93.26
28027;BME280;15344;52.342;-1.290;2023-02-19T03:17:09;100924.07;;;11.68;89.66
28027;BME280;15344;52.342;-1.290;2023-02-19T03:19:30;100924.12;;;12.01;90.08
28027;BME280;15344;52.342;-1.290;2023-02-19T03:21:57;100924.33;;;12.28;88.68
28027;BME280;15344;52.342;-1.290;2023-02-19T03:24:23;100924.03;;;11.75;90.42
28027;BME280;15344;52.342;-1.290;2023-02-19T03:26:45;100926.82;;;11.20;94.15
28027;BME280;15344;52.342;-1.290;2023-02-19T03:29:11;100931.18;;;11.99;89.10
28027;BME280;15344;52.342;-1.290;2023-02-19T03:31:42;100932.79;;;12.55;87.34
28027;BME280;15344;52.342;-1.290;2023-02-19T03:34:04;100942.23;;;12.61;85.58
28027;BME280;15344;52.342;-1.290;2023-02-19T03:36:32;100952.01;;;12.97;84.49
28027;BME280;15344;52.342;-1.290;2023-02-19T03:38:56;100945.39;;;12.76;84.21
28027;BME280;15344;52.342;-1.290;2023-02-19T03:41:23;100942.56;;;12.62;84.48
28027;BME280;15344;52.342;-1.290;2023-02-19T03:43:49;100944.86;;;12.81;84.00
28027;BME280;15344;52.342;-1.290;2023-02-19T03:46:12;100946.33;;;12.54;84.78
28027;BME280;15344;52.342;-1.290;2023-02-19T03:48:34;100955.81;;;12.65;83.44
28027;BME280;15344;52.342;-1.290;2023-02-19T03:51:05;100962.63;;;12.52;84.66
28027;BME280;15344;52.342;-1.290;2023-02-19T03:53:27;100960.98;;;12.45;84.09
28027;BME280;15344;52.342;-1.290;2023-02-19T03:55:56;100970.71;;;12.03;86.61
28027;BME280;15344;52.342;-1.290;2023-02-19T03:58:19;100977.70;;;12.50;84.99
28027;BME280;15344;52.342;-1.290;2023-02-19T04:00:43;100979.62;;;12.63;84.47
28027;BME280;15344;52.342;-1.290;2023-02-19T04:03:10;100995.71;;;12.09;86.71
28027;BME280;15344;52.342;-1.290;2023-02-19T04:05:34;101002.65;;;12.86;83.60
28027;BME280;15344;52.342;-1.290;2023-02-19T04:07:59;101001.16;;;13.26;80.96
28027;BME280;15344;52.342;-1.290;2023-02-19T04:10:22;101001.88;;;12.41;82.89
28027;BME280;15344;52.342;-1.290;2023-02-19T04:12:50;100998.95;;;13.16;81.87
28027;BME280;15344;52.342;-1.290;2023-02-19T04:15:15;101000.45;;;12.81;83.38
28027;BME280;15344;52.342;-1.290;2023-02-19T04:17:41;101003.88;;;12.18;86.28
28027;BME280;15344;52.342;-1.290;2023-02-19T04:20:06;101009.21;;;11.21;92.41
28027;BME280;15344;52.342;-1.290;2023-02-19T04:22:28;101016.16;;;11.08;95.60
28027;BME280;15344;52.342;-1.290;2023-02-19T04:24:54;101021.30;;;11.02;94.82
28027;BME280;15344;52.342;-1.290;2023-02-19T04:27:19;101021.93;;;12.16;92.18
28027;BME280;15344;52.342;-1.290;2023-02-19T04:29:44;101020.89;;;11.41;93.28
28027;BME280;15344;52.342;-1.290;2023-02-19T04:32:10;101012.73;;;11.92;91.93
28027;BME280;15344;52.342;-1.290;2023-02-19T04:34:35;101012.94;;;11.35;95.83
28027;BME280;15344;52.342;-1.290;2023-02-19T04:39:26;101019.79;;;12.44;90.91
28027;BME280;15344;52.342;-1.290;2023-02-19T04:41:51;101026.31;;;11.61;93.18
28027;BME280;15344;52.342;-1.290;2023-02-19T04:44:16;101022.10;;;11.93;90.71
28027;BME280;15344;52.342;-1.290;2023-02-19T04:46:42;101024.24;;;11.83;90.41
28027;BME280;15344;52.342;-1.290;2023-02-19T04:49:07;101020.22;;;12.64;87.59
28027;BME280;15344;52.342;-1.290;2023-02-19T04:51:33;101027.20;;;12.03;90.97
28027;BME280;15344;52.342;-1.290;2023-02-19T04:53:58;101038.85;;;11.35;92.47
28027;BME280;15344;52.342;-1.290;2023-02-19T04:56:23;101049.20;;;11.97;90.69
28027;BME280;15344;52.342;-1.290;2023-02-19T04:58:49;101062.44;;;11.67;92.43
28027;BME280;15344;52.342;-1.290;2023-02-19T05:01:14;101071.51;;;12.09;91.61
28027;BME280;15344;52.342;-1.290;2023-02-19T05:03:40;101074.47;;;9.76;100.00
28027;BME280;15344;52.342;-1.290;2023-02-19T05:06:07;101087.55;;;9.64;100.00
28027;BME280;15344;52.342;-1.290;2023-02-19T05:08:30;101093.36;;;10.20;100.00
28027;BME280;15344;52.342;-1.290;2023-02-19T05:10:57;101090.28;;;9.07;100.00
28027;BME280;15344;52.342;-1.290;2023-02-19T05:13:21;101095.57;;;8.82;100.00
28027;BME280;15344;52.342;-1.290;2023-02-19T05:15:53;101100.52;;;8.01;100.00
28027;BME280;15344;52.342;-1.290;2023-02-19T05:18:12;101102.16;;;8.91;100.00
28027;BME280;15344;52.342;-1.290;2023-02-19T05:20:37;101100.49;;;8.25;100.00
28027;BME280;15344;52.342;-1.290;2023-02-19T05:23:03;101106.79;;;8.63;100.00
28027;BME280;15344;52.342;-1.290;2023-02-19T05:25:28;101109.27;;;9.00;100.00
28027;BME280;15344;52.342;-1.290;2023-02-19T05:27:54;101111.09;;;8.76;100.00
28027;BME280;15344;52.342;-1.290;2023-02-19T05:30:19;101116.95;;;8.88;100.00
28027;BME280;15344;52.342;-1.290;2023-02-19T05:32:44;101123.30;;;8.85;100.00
28027;BME280;15344;52.342;-1.290;2023-02-19T05:35:10;101126.52;;;7.94;100.00
28027;BME280;15344;52.342;-1.290;2023-02-19T05:37:36;101129.82;;;9.35;97.89
28027;BME280;15344;52.342;-1.290;2023-02-19T05:40:01;101134.06;;;7.37;100.00
28027;BME280;15344;52.342;-1.290;2023-02-19T05:42:26;101138.43;;;8.35;100.00
28027;BME280;15344;52.342;-1.290;2023-02-19T05:44:52;101142.40;;;8.07;99.65
28027;BME280;15344;52.342;-1.290;2023-02-19T05:47:17;101145.56;;;9.23;94.27
28027;BME280;15344;52.342;-1.290;2023-02-19T05:49:44;101156.25;;;8.17;98.49
28027;BME280;15344;52.342;-1.290;2023-02-19T05:52:08;101161.95;;;9.05;94.08
28027;BME280;15344;52.342;-1.290;2023-02-19T05:54:33;101166.12;;;8.69;96.00
28027;BME280;15344;52.342;-1.290;2023-02-19T05:56:59;101157.85;;;9.03;99.02
28027;BME280;15344;52.342;-1.290;2023-02-19T05:59:25;101155.25;;;8.98;95.52
28027;BME280;15344;52.342;-1.290;2023-02-19T06:01:51;101154.64;;;8.69;98.51
28027;BME280;15344;52.342;-1.290;2023-02-19T06:04:15;101153.92;;;9.69;94.41
28027;BME280;15344;52.342;-1.290;2023-02-19T06:06:41;101156.74;;;8.95;95.62
28027;BME280;15344;52.342;-1.290;2023-02-19T06:09:07;101161.56;;;8.57;97.39
28027;BME280;15344;52.342;-1.290;2023-02-19T06:11:32;101163.75;;;9.16;94.41
28027;BME280;15344;52.342;-1.290;2023-02-19T06:13:57;101167.40;;;9.68;94.32
28027;BME280;15344;52.342;-1.290;2023-02-19T06:16:23;101163.59;;;9.58;93.97
28027;BME280;15344;52.342;-1.290;2023-02-19T06:18:48;101167.15;;;9.45;92.72
28027;BME280;15344;52.342;-1.290;2023-02-19T06:21:14;101162.08;;;10.23;88.52
28027;BME280;15344;52.342;-1.290;2023-02-19T06:23:39;101163.28;;;9.66;90.27
28027;BME280;15344;52.342;-1.290;2023-02-19T06:26:07;101176.06;;;9.83;88.16
28027;BME280;15344;52.342;-1.290;2023-02-19T06:28:30;101185.78;;;9.82;84.31
28027;BME280;15344;52.342;-1.290;2023-02-19T06:30:57;101195.64;;;10.62;81.68
28027;BME280;15344;52.342;-1.290;2023-02-19T06:33:21;101199.00;;;9.04;87.69
28027;BME280;15344;52.342;-1.290;2023-02-19T06:35:46;101206.45;;;10.65;81.37
28027;BME280;15344;52.342;-1.290;2023-02-19T06:38:12;101210.75;;;10.04;83.87
28027;BME280;15344;52.342;-1.290;2023-02-19T06:40:37;101211.23;;;10.19;81.52
28027;BME280;15344;52.342;-1.290;2023-02-19T06:43:04;101207.51;;;9.53;83.84
28027;BME280;15344;52.342;-1.290;2023-02-19T06:45:28;101204.26;;;11.04;80.32
28027;BME280;15344;52.342;-1.290;2023-02-19T06:47:53;101196.06;;;11.06;80.21
28027;BME280;15344;52.342;-1.290;2023-02-19T06:50:18;101192.20;;;9.85;86.19
28027;BME280;15344;52.342;-1.290;2023-02-19T06:52:44;101200.05;;;9.60;87.39
28027;BME280;15344;52.342;-1.290;2023-02-19T06:55:09;101198.09;;;9.89;85.22
28027;BME280;15344;52.342;-1.290;2023-02-19T06:57:35;101197.97;;;10.69;82.63
28027;BME280;15344;52.342;-1.290;2023-02-19T07:00:01;101197.90;;;9.34;86.82
28027;BME280;15344;52.342;-1.290;2023-02-19T07:02:26;101199.01;;;9.13;86.69
28027;BME280;15344;52.342;-1.290;2023-02-19T07:04:51;101199.92;;;9.45;86.56
28027;BME280;15344;52.342;-1.290;2023-02-19T07:07:17;101190.14;;;9.37;88.04
28027;BME280;15344;52.342;-1.290;2023-02-19T07:09:42;101203.47;;;9.87;86.82
28027;BME280;15344;52.342;-1.290;2023-02-19T07:12:07;101206.94;;;9.60;87.43
28027;BME280;15344;52.342;-1.290;2023-02-19T07:14:33;101214.04;;;9.22;90.03
28027;BME280;15344;52.342;-1.290;2023-02-19T07:16:58;101219.07;;;9.71;86.81
28027;BME280;15344;52.342;-1.290;2023-02-19T07:19:23;101221.21;;;9.51;87.28
28027;BME280;15344;52.342;-1.290;2023-02-19T07:21:49;101231.38;;;8.69;91.87
28027;BME280;15344;52.342;-1.290;2023-02-19T07:24:14;101234.84;;;10.40;85.63
28027;BME280;15344;52.342;-1.290;2023-02-19T07:26:40;101246.27;;;9.26;89.88
28027;BME280;15344;52.342;-1.290;2023-02-19T07:29:05;101248.21;;;8.83;93.02
28027;BME280;15344;52.342;-1.290;2023-02-19T07:31:30;101254.01;;;9.54;90.82
28027;BME280;15344;52.342;-1.290;2023-02-19T07:33:56;101268.00;;;9.59;91.23
28027;BME280;15344;52.342;-1.290;2023-02-19T07:36:23;101280.41;;;10.02;89.44
28027;BME280;15344;52.342;-1.290;2023-02-19T07:38:52;101288.64;;;9.67;90.45
28027;BME280;15344;52.342;-1.290;2023-02-19T07:41:12;101296.29;;;8.87;96.20
28027;BME280;15344;52.342;-1.290;2023-02-19T07:43:39;101314.68;;;9.07;96.55
28027;BME280;15344;52.342;-1.290;2023-02-19T07:46:04;101324.07;;;8.06;97.42
28027;BME280;15344;52.342;-1.290;2023-02-19T07:48:29;101329.55;;;8.01;100.00
28027;BME280;15344;52.342;-1.290;2023-02-19T07:51:01;101326.88;;;8.78;92.98
28027;BME280;15344;52.342;-1.290;2023-02-19T07:53:20;101303.46;;;9.98;88.02
28027;BME280;15344;52.342;-1.290;2023-02-19T07:55:51;101268.90;;;10.02;85.38
28027;BME280;15344;52.342;-1.290;2023-02-19T07:58:11;101269.67;;;10.44;82.37
28027;BME280;15344;52.342;-1.290;2023-02-19T08:00:36;101289.09;;;9.47;86.31
28027;BME280;15344;52.342;-1.290;2023-02-19T08:03:02;101290.86;;;9.15;87.48
28027;BME280;15344;52.342;-1.290;2023-02-19T08:05:28;101293.22;;;8.95;90.41
28027;BME280;15344;52.342;-1.290;2023-02-19T08:07:53;101291.65;;;9.34;89.41
28027;BME280;15344;52.342;-1.290;2023-02-19T08:10:18;101290.15;;;10.53;84.03
28027;BME280;15344;52.342;-1.290;2023-02-19T08:12:43;101297.04;;;10.57;84.25
28027;BME280;15344;52.342;-1.290;2023-02-19T08:15:08;101283.87;;;10.79;82.85
28027;BME280;15344;52.342;-1.290;2023-02-19T08:17:34;101271.53;;;11.11;81.07
28027;BME280;15344;52.342;-1.290;2023-02-19T08:19:59;101274.65;;;11.18;81.44
28027;BME280;15344;52.342;-1.290;2023-02-19T08:22:25;101275.11;;;10.81;82.08
28027;BME280;15344;52.342;-1.290;2023-02-19T08:24:51;101276.99;;;10.64;82.69
28027;BME280;15344;52.342;-1.290;2023-02-19T08:27:16;101280.71;;;10.21;84.73
28027;BME280;15344;52.342;-1.290;2023-02-19T08:29:41;101284.00;;;8.54;91.44
28027;BME280;15344;52.342;-1.290;2023-02-19T08:32:06;101292.17;;;9.04;90.58
28027;BME280;15344;52.342;-1.290;2023-02-19T08:34:33;101303.18;;;9.56;88.77
28027;BME280;15344;52.342;-1.290;2023-02-19T08:36:57;101315.03;;;10.40;83.74
28027;BME280;15344;52.342;-1.290;2023-02-19T08:39:23;101324.77;;;10.04;86.89
28027;BME280;15344;52.342;-1.290;2023-02-19T08:41:48;101330.97;;;10.95;82.09
28027;BME280;15344;52.342;-1.290;2023-02-19T08:44:14;101325.47;;;10.97;81.43
28027;BME280;15344;52.342;-1.290;2023-02-19T08:46:39;101318.99;;;11.50;79.44
28027;BME280;15344;52.342;-1.290;2023-02-19T08:49:04;101312.31;;;11.21;80.88
28027;BME280;15344;52.342;-1.290;2023-02-19T08:51:30;101310.53;;;11.40;80.23
28027;BME280;15344;52.342;-1.290;2023-02-19T08:53:55;101314.35;;;11.57;78.91
28027;BME280;15344;52.342;-1.290;2023-02-19T08:56:21;101328.47;;;11.54;77.92
28027;BME280;15344;52.342;-1.290;2023-02-19T08:58:46;101344.76;;;11.67;77.67
28027;BME280;15344;52.342;-1.290;2023-02-19T09:01:13;101364.44;;;10.71;78.66
28027;BME280;15344;52.342;-1.290;2023-02-19T09:03:37;101381.69;;;12.75;74.54
28027;BME280;15344;52.342;-1.290;2023-02-19T09:06:03;101382.99;;;12.90;72.67
28027;BME280;15344;52.342;-1.290;2023-02-19T09:08:28;101374.19;;;11.13;77.68
28027;BME280;15344;52.342;-1.290;2023-02-19T09:10:57;101366.63;;;11.16;77.69
28027;BME280;15344;52.342;-1.290;2023-02-19T09:13:18;101359.99;;;11.88;74.80
28027;BME280;15344;52.342;-1.290;2023-02-19T09:15:44;101360.83;;;12.11;76.51
28027;BME280;15344;52.342;-1.290;2023-02-19T09:18:14;101357.23;;;12.61;73.17
28027;BME280;15344;52.342;-1.290;2023-02-19T09:20:34;101351.64;;;13.09;71.53
28027;BME280;15344;52.342;-1.290;2023-02-19T09:23:00;101346.60;;;13.08;71.22
28027;BME280;15344;52.342;-1.290;2023-02-19T09:25:25;101354.89;;;12.54;70.93
28027;BME280;15344;52.342;-1.290;2023-02-19T09:27:54;101350.86;;;12.35;71.95
28027;BME280;15344;52.342;-1.290;2023-02-19T09:30:16;101366.80;;;13.70;67.62
28027;BME280;15344;52.342;-1.290;2023-02-19T09:32:41;101366.04;;;13.76;66.92
28027;BME280;15344;52.342;-1.290;2023-02-19T09:35:07;101368.29;;;13.55;68.06
28027;BME280;15344;52.342;-1.290;2023-02-19T09:37:32;101376.71;;;13.67;66.30
28027;BME280;15344;52.342;-1.290;2023-02-19T09:39:57;101371.40;;;13.80;67.10
28027;BME280;15344;52.342;-1.290;2023-02-19T09:42:24;101367.43;;;12.27;71.77
28027;BME280;15344;52.342;-1.290;2023-02-19T09:44:50;101367.52;;;12.29;70.69
28027;BME280;15344;52.342;-1.290;2023-02-19T09:47:16;101371.47;;;11.98;74.22
28027;BME280;15344;52.342;-1.290;2023-02-19T09:49:40;101378.99;;;13.62;70.37
28027;BME280;15344;52.342;-1.290;2023-02-19T09:52:08;101392.21;;;12.23;73.70
28027;BME280;15344;52.342;-1.290;2023-02-19T09:54:31;101401.10;;;13.88;69.58
28027;BME280;15344;52.342;-1.290;2023-02-19T09:56:56;101400.53;;;13.28;69.94
28027;BME280;15344;52.342;-1.290;2023-02-19T09:59:25;101406.54;;;11.77;75.29
28027;BME280;15344;52.342;-1.290;2023-02-19T10:01:47;101400.79;;;12.20;72.26
28027;BME280;15344;52.342;-1.290;2023-02-19T10:04:11;101407.62;;;12.71;72.79
28027;BME280;15344;52.342;-1.290;2023-02-19T10:06:36;101412.42;;;13.38;71.32
28027;BME280;15344;52.342;-1.290;2023-02-19T10:09:15;101428.98;;;13.86;69.24
28027;BME280;15344;52.342;-1.290;2023-02-19T10:11:27;101422.63;;;13.62;66.77
28027;BME280;15344;52.342;-1.290;2023-02-19T10:13:54;101419.02;;;13.91;67.18
28027;BME280;15344;52.342;-1.290;2023-02-19T10:16:23;101418.67;;;12.09;73.12
28027;BME280;15344;52.342;-1.290;2023-02-19T10:18:44;101416.81;;;13.23;69.21
28027;BME280;15344;52.342;-1.290;2023-02-19T10:21:11;101417.30;;;12.92;69.29
28027;BME280;15344;52.342;-1.290;2023-02-19T10:23:34;101414.53;;;13.35;65.98
28027;BME280;15344;52.342;-1.290;2023-02-19T10:25:59;101417.02;;;14.27;63.78
28027;BME280;15344;52.342;-1.290;2023-02-19T10:28:27;101427.06;;;14.62;63.63
28027;BME280;15344;52.342;-1.290;2023-02-19T10:30:53;101423.69;;;13.92;66.17
28027;BME280;15344;52.342;-1.290;2023-02-19T10:33:15;101424.27;;;14.19;65.06
28027;BME280;15344;52.342;-1.290;2023-02-19T10:38:05;101422.87;;;14.23;63.25
28027;BME280;15344;52.342;-1.290;2023-02-19T10:40:31;101422.59;;;15.14;63.02
28027;BME280;15344;52.342;-1.290;2023-02-19T10:42:58;101423.97;;;14.02;64.35
28027;BME280;15344;52.342;-1.290;2023-02-19T10:45:24;101420.16;;;12.94;67.43
28027;BME280;15344;52.342;-1.290;2023-02-19T10:47:47;101420.55;;;13.61;65.72
28027;BME280;15344;52.342;-1.290;2023-02-19T10:50:20;101420.41;;;13.60;64.48
28027;BME280;15344;52.342;-1.290;2023-02-19T10:52:37;101414.39;;;14.37;63.42
28027;BME280;15344;52.342;-1.290;2023-02-19T10:57:29;101407.78;;;15.33;61.37
28027;BME280;15344;52.342;-1.290;2023-02-19T10:59:55;101401.84;;;14.99;61.44
28027;BME280;15344;52.342;-1.290;2023-02-19T11:02:19;101408.20;;;15.80;58.40
28027;BME280;15344;52.342;-1.290;2023-02-19T11:07:10;101406.51;;;16.38;56.79
28027;BME280;15344;52.342;-1.290;2023-02-19T11:09:37;101404.70;;;15.80;58.12
28027;BME280;15344;52.342;-1.290;2023-02-19T11:11:59;101393.37;;;14.51;60.74
28027;BME280;15344;52.342;-1.290;2023-02-19T11:14:26;101391.03;;;15.41;59.69
28027;BME280;15344;52.342;-1.290;2023-02-19T11:16:51;101391.20;;;15.55;59.80
28027;BME280;15344;52.342;-1.290;2023-02-19T11:19:22;101397.46;;;15.24;62.07
28027;BME280;15344;52.342;-1.290;2023-02-19T11:21:40;101396.49;;;14.45;64.82
28027;BME280;15344;52.342;-1.290;2023-02-19T11:24:12;101399.40;;;14.64;63.36
28027;BME280;15344;52.342;-1.290;2023-02-19T11:26:33;101403.48;;;14.23;64.52
28027;BME280;15344;52.342;-1.290;2023-02-19T11:28:58;101401.37;;;15.30;62.39
28027;BME280;15344;52.342;-1.290;2023-02-19T11:31:23;101397.78;;;14.62;64.77
28027;BME280;15344;52.342;-1.290;2023-02-19T11:33:53;101396.13;;;15.66;61.84
28027;BME280;15344;52.342;-1.290;2023-02-19T11:38:38;101396.56;;;15.05;61.31
28027;BME280;15344;52.342;-1.290;2023-02-19T11:41:09;101402.34;;;14.16;66.12
28027;BME280;15344;52.342;-1.290;2023-02-19T11:43:42;101405.73;;;15.26;62.85
28027;BME280;15344;52.342;-1.290;2023-02-19T11:46:00;101399.08;;;15.01;63.14
28027;BME280;15344;52.342;-1.290;2023-02-19T11:48:29;101390.20;;;15.06;63.82
28027;BME280;15344;52.342;-1.290;2023-02-19T11:50:52;101382.49;;;15.42;64.37
28027;BME280;15344;52.342;-1.290;2023-02-19T11:53:16;101375.63;;;14.65;65.71
28027;BME280;15344;52.342;-1.290;2023-02-19T11:55:46;101368.47;;;15.13;64.68
28027;BME280;15344;52.342;-1.290;2023-02-19T11:58:09;101370.63;;;14.90;67.32
28027;BME280;15344;52.342;-1.290;2023-02-19T12:00:26;101365.48;;;14.36;67.32
28027;BME280;15344;52.342;-1.290;2023-02-19T12:03:00;101366.65;;;14.31;68.23
28027;BME280;15344;52.342;-1.290;2023-02-19T12:05:26;101361.95;;;14.84;66.45
28027;BME280;15344;52.342;-1.290;2023-02-19T12:07:54;101359.74;;;14.41;68.40
28027;BME280;15344;52.342;-1.290;2023-02-19T12:10:11;101360.46;;;14.27;69.10
28027;BME280;15344;52.342;-1.290;2023-02-19T12:12:42;101357.83;;;14.13;69.80
28027;BME280;15344;52.342;-1.290;2023-02-19T12:15:15;101352.21;;;14.30;67.87
28027;BME280;15344;52.342;-1.290;2023-02-19T12:17:33;101351.59;;;15.26;65.85
28027;BME280;15344;52.342;-1.290;2023-02-19T12:20:02;101347.55;;;15.03;65.11
28027;BME280;15344;52.342;-1.290;2023-02-19T12:22:24;101351.09;;;14.55;64.25
28027;BME280;15344;52.342;-1.290;2023-02-19T12:24:52;101350.14;;;15.31;64.98
28027;BME280;15344;52.342;-1.290;2023-02-19T12:27:16;101351.63;;;15.21;62.43
28027;BME280;15344;52.342;-1.290;2023-02-19T12:29:40;101339.40;;;15.10;64.06
28027;BME280;15344;52.342;-1.290;2023-02-19T12:32:08;101337.63;;;15.27;63.28
28027;BME280;15344;52.342;-1.290;2023-02-19T12:36:52;101339.82;;;15.07;67.24
28027;BME280;15344;52.342;-1.290;2023-02-19T12:39:16;101336.16;;;15.03;66.94
28027;BME280;15344;52.342;-1.290;2023-02-19T12:41:40;101329.27;;;14.45;69.63
28027;BME280;15344;52.342;-1.290;2023-02-19T12:44:04;101334.41;;;14.92;67.46
28027;BME280;15344;52.342;-1.290;2023-02-19T12:46:30;101339.22;;;15.12;66.51
28027;BME280;15344;52.342;-1.290;2023-02-19T12:48:55;101346.02;;;15.29;65.54